Sikinos — 9HA2865 — position and weather

sailwx.info

Track history (hours):
 
Tides and Currents Weather Stations Pressure Air Temp Water Temp Dewpoint Dewpoint Depression Visibility Wind Speed Wind Dir Waves Ship Positions

Sikinos

Last reported at 2016-May-05 17:30 UTC. Time now 2016-May-05 18:00 UTC.
Position N 51°29' E 001°48'.

Length 90 m; draft 5.6 m.

Type: Ship (hazmat cat A). MMSI: 256462000.

Date/timePositionNaut miles runAvg speedWind from/ knotsBaromVisibWave heightAir tempDewpointWater temp
2016-May-05 17:30N 51°29' E 001°48'0 0.1
2016-May-05 16:30N 51°29' E 001°48'0 0.3
2016-May-05 15:33N 51°29' E 001°48'0 0.1
2016-May-05 14:33N 51°29' E 001°49'1 1.1
2016-May-05 13:33N 51°30' E 001°47'6 5.8
2016-May-05 12:33N 51°29' E 001°38'9 9.0
2016-May-05 11:33N 51°25' E 001°25'0 0.1
2016-May-05 10:33N 51°25' E 001°25'0 0.0
2016-May-05 09:33N 51°25' E 001°25'0 0.0
2016-May-05 08:33N 51°25' E 001°25'0 0.0
2016-May-05 07:33N 51°25' E 001°25'0 0.0
2016-May-05 06:33N 51°25' E 001°25'0 0.1
2016-May-05 05:33N 51°25' E 001°25'0 0.1
2016-May-05 04:33N 51°25' E 001°25'0 0.0
2016-May-05 03:33N 51°25' E 001°25'0 0.0
2016-May-05 02:33N 51°25' E 001°25'0 0.0
2016-May-05 01:33N 51°25' E 001°25'0 0.0
2016-May-05 00:33N 51°25' E 001°25'0 0.0
2016-May-04 23:33N 51°25' E 001°25'0 0.1
2016-May-04 22:33N 51°25' E 001°25'0 0.0
2016-May-04 21:33N 51°25' E 001°25'0 0.0
2016-May-04 20:33N 51°25' E 001°25'0 0.1
2016-May-04 19:33N 51°25' E 001°25'0 0.0
2016-May-04 18:33N 51°25' E 001°25'0 0.0
2016-May-04 17:34N 51°25' E 001°25'0 0.1
2016-May-04 16:33N 51°25' E 001°25'6 5.9
2016-May-04 15:34N 51°28' E 001°33'1110.8
2016-May-04 14:34N 51°29' E 001°51'1111.3
2016-May-04 13:33N 51°24' E 002°07'1010.3
2016-May-04 12:34N 51°21' E 002°23'1010.0
2016-May-04 11:34N 51°23' E 002°39'10 8.9
2016-May-04 10:28N 51°22' E 002°54'9 9.3
2016-May-04 09:32N 51°22' E 003°08'3 1.6
2016-May-04 07:32N 51°20' E 003°12'0 0.0
2016-May-04 06:17N 51°20' E 003°12'0 0.0
2016-May-04 04:32N 51°20' E 003°12'0 0.0
2016-May-04 03:29N 51°20' E 003°12'0 0.0
2016-May-04 01:05N 51°20' E 003°12'0 0.0
2016-May-03 22:17N 51°20' E 003°12'0 0.0
2016-May-03 21:32N 51°20' E 003°12'0 0.0
2016-May-03 20:05N 51°20' E 003°12'0 0.0
2016-May-03 16:05N 51°20' E 003°12'0 0.0
2016-May-03 12:23N 51°20' E 003°12'0 0.0
2016-May-03 10:32N 51°20' E 003°12'0 0.0
2016-May-03 09:26N 51°20' E 003°12'0 0.0
2016-May-03 06:32N 51°20' E 003°12'0 0.0
2016-May-03 04:26N 51°20' E 003°12'0 0.0
2016-May-03 03:32N 51°20' E 003°12'0 0.0
2016-May-03 02:23N 51°20' E 003°12'0 0.0
2016-May-03 01:20N 51°20' E 003°12'0 0.0
2016-May-03 00:14N 51°20' E 003°12'0 0.0
2016-May-02 23:29N 51°20' E 003°12'0 0.0
2016-May-02 22:32N 51°20' E 003°12'0 0.0
2016-May-02 21:29N 51°20' E 003°12'0 0.0
2016-May-02 20:20N 51°20' E 003°12'0 0.0
2016-May-02 19:32N 51°20' E 003°12'0 0.0
2016-May-02 18:29N 51°20' E 003°12'0 0.0
2016-May-02 17:20N 51°20' E 003°12'0 0.0
2016-May-02 15:08N 51°20' E 003°12'0 0.0
2016-May-02 14:32N 51°20' E 003°12'0 0.0
2016-May-02 13:14N 51°20' E 003°12'0 0.0
2016-May-02 11:32N 51°20' E 003°12'0 0.0
2016-May-02 10:26N 51°20' E 003°12'0 0.0
2016-May-02 08:20N 51°20' E 003°12'0 0.0
2016-May-02 07:05N 51°20' E 003°12'0 0.0
2016-May-02 06:29N 51°20' E 003°12'0 0.0
2016-May-02 05:32N 51°20' E 003°12'0 0.0
2016-May-02 04:08N 51°20' E 003°12'0 0.0
2016-May-02 03:29N 51°20' E 003°12'0 0.0
2016-May-02 02:32N 51°20' E 003°12'0 0.0
2016-May-01 22:20N 51°20' E 003°12'0 0.0
2016-May-01 21:29N 51°20' E 003°12'0 0.0
2016-May-01 20:23N 51°20' E 003°12'0 0.0
2016-May-01 19:29N 51°20' E 003°12'0 0.0
2016-May-01 18:08N 51°20' E 003°12'0 0.0
2016-May-01 17:32N 51°20' E 003°12'0 0.0
2016-May-01 16:11N 51°20' E 003°12'0 0.0
2016-May-01 15:20N 51°20' E 003°12'0 0.0
2016-May-01 14:32N 51°20' E 003°12'0 0.0
2016-May-01 13:23N 51°20' E 003°12'0 0.0
2016-May-01 12:29N 51°20' E 003°12'0 0.0
2016-May-01 11:32N 51°20' E 003°12'0 0.0
2016-May-01 09:32N 51°20' E 003°12'0 0.0
2016-May-01 08:29N 51°20' E 003°12'0 0.0
2016-May-01 07:26N 51°20' E 003°12'0 0.0
2016-May-01 06:32N 51°20' E 003°12'0 0.0
2016-May-01 04:11N 51°20' E 003°12'0 0.0
2016-May-01 03:23N 51°20' E 003°12'0 0.0
2016-May-01 02:26N 51°20' E 003°12'0 0.0
2016-May-01 01:32N 51°20' E 003°12'0 0.0
2016-May-01 00:26N 51°20' E 003°12'0 0.0
2016-Apr-30 23:32N 51°20' E 003°12'0 0.0
2016-Apr-30 22:11N 51°20' E 003°12'0 0.0
2016-Apr-30 21:20N 51°20' E 003°12'0 0.0
2016-Apr-30 20:29N 51°20' E 003°12'0 0.0
2016-Apr-30 19:14N 51°20' E 003°12'0 0.0
2016-Apr-30 17:29N 51°20' E 003°12'0 0.0
2016-Apr-30 16:29N 51°20' E 003°12'0 0.0
2016-Apr-30 15:32N 51°20' E 003°12'0 0.0
2016-Apr-30 14:23N 51°20' E 003°12'0 0.0
2016-Apr-30 13:08N 51°20' E 003°12'0 0.0
2016-Apr-30 12:17N 51°20' E 003°12'0 0.0
2016-Apr-30 08:29N 51°20' E 003°12'0 0.0
2016-Apr-30 07:17N 51°20' E 003°12'0 0.0
2016-Apr-30 06:32N 51°20' E 003°12'0 0.0
2016-Apr-30 05:29N 51°20' E 003°12'0 0.0
2016-Apr-30 02:14N 51°20' E 003°12'0 0.0
2016-Apr-30 01:20N 51°20' E 003°12'0 0.0
2016-Apr-29 23:29N 51°20' E 003°12'0 0.0
2016-Apr-29 22:08N 51°20' E 003°12'0 0.0
2016-Apr-29 21:32N 51°20' E 003°12'0 0.0
2016-Apr-29 20:32N 51°20' E 003°12'0 0.0
2016-Apr-29 19:29N 51°20' E 003°12'0 0.0
2016-Apr-29 18:32N 51°20' E 003°12'0 0.0
2016-Apr-29 17:32N 51°20' E 003°12'0 0.0
2016-Apr-29 16:32N 51°20' E 003°12'0 0.0
2016-Apr-29 15:32N 51°20' E 003°12'0 0.0
2016-Apr-29 13:26N 51°20' E 003°12'0 0.0
2016-Apr-29 07:29N 51°20' E 003°12'0 0.0
2016-Apr-29 04:32N 51°20' E 003°12'0 0.0
2016-Apr-29 03:20N 51°20' E 003°12'0 0.0
2016-Apr-29 01:32N 51°20' E 003°12'0 0.0
2016-Apr-29 00:31N 51°20' E 003°12'0 0.0
2016-Apr-28 22:23N 51°20' E 003°12'0 0.0
2016-Apr-28 21:17N 51°20' E 003°12'0 0.0
2016-Apr-28 20:31N 51°20' E 003°12'0 0.0
2016-Apr-28 19:23N 51°20' E 003°12'0 0.0
2016-Apr-28 17:31N 51°20' E 003°12'0 0.0
2016-Apr-28 16:28N 51°20' E 003°12'0 0.0
2016-Apr-28 15:10N 51°20' E 003°12'0 0.0
2016-Apr-28 14:23N 51°20' E 003°12'0 0.0
2016-Apr-28 10:22N 51°20' E 003°12'0 0.0
2016-Apr-28 08:22N 51°20' E 003°12'0 0.0
2016-Apr-28 06:28N 51°20' E 003°12'0 0.0
2016-Apr-28 05:25N 51°20' E 003°12'0 0.0
2016-Apr-28 04:31N 51°20' E 003°12'0 0.0
2016-Apr-28 02:07N 51°20' E 003°12'0 0.0
2016-Apr-28 01:31N 51°20' E 003°12'0 0.0
2016-Apr-27 23:31N 51°20' E 003°12'0 0.0
2016-Apr-27 20:16N 51°20' E 003°12'0 0.0
2016-Apr-27 19:31N 51°20' E 003°12'0 0.0
2016-Apr-27 18:25N 51°20' E 003°12'0 0.0
2016-Apr-27 16:28N 51°20' E 003°12'0 0.0
2016-Apr-27 15:31N 51°20' E 003°12'0 0.0
2016-Apr-27 10:25N 51°20' E 003°12'0 0.0
2016-Apr-27 09:25N 51°20' E 003°12'0 0.0
2016-Apr-27 07:28N 51°20' E 003°12'0 0.0
2016-Apr-27 06:16N 51°20' E 003°12'0 0.0
2016-Apr-27 05:22N 51°20' E 003°12'0 0.0
2016-Apr-27 04:25N 51°20' E 003°12'0 0.0
2016-Apr-27 02:16N 51°20' E 003°12'0 0.0
2016-Apr-26 22:28N 51°20' E 003°12'0 0.0
2016-Apr-26 21:28N 51°20' E 003°12'0 0.0
2016-Apr-26 18:22N 51°20' E 003°12'0 0.0
2016-Apr-26 16:31N 51°20' E 003°12'0 0.0
2016-Apr-26 14:31N 51°20' E 003°12'0 0.0
2016-Apr-26 13:31N 51°20' E 003°12'0 0.0
2016-Apr-26 12:31N 51°20' E 003°12'0 0.0
2016-Apr-26 11:31N 51°20' E 003°12'0 0.0
2016-Apr-26 10:31N 51°20' E 003°12'0 0.0
2016-Apr-26 09:31N 51°20' E 003°12'0 0.0
2016-Apr-26 08:31N 51°20' E 003°12'0 0.0
2016-Apr-26 07:31N 51°20' E 003°12'0 0.0
2016-Apr-26 06:31N 51°20' E 003°12'0 0.0
2016-Apr-26 05:28N 51°20' E 003°12'0 0.0
2016-Apr-26 04:28N 51°20' E 003°12'0 0.0
2016-Apr-26 03:31N 51°20' E 003°12'0 0.0
2016-Apr-26 02:28N 51°20' E 003°12'0 0.0
2016-Apr-26 01:31N 51°20' E 003°12'0 0.0
2016-Apr-26 00:25N 51°20' E 003°12'0 0.0
2016-Apr-25 22:19N 51°20' E 003°12'0 0.0
2016-Apr-25 20:22N 51°20' E 003°12'0 0.0
2016-Apr-25 19:07N 51°20' E 003°12'0 0.0
2016-Apr-25 18:22N 51°20' E 003°12'0 0.0
2016-Apr-25 17:31N 51°20' E 003°12'  
Track history (hours):
 
Tides and Currents Weather Stations Pressure Air Temp Water Temp Dewpoint Dewpoint Depression Visibility Wind Speed Wind Dir Waves Ship Positions

Sikinos

Last reported at 2016-May-05 17:30 UTC. Time now 2016-May-05 18:00 UTC.
Position N 51°29' E 001°48'.

Length 90 m; draft 5.6 m.

Type: Ship (hazmat cat A). MMSI: 256462000.

Date/timePositionNaut miles runAvg speedWind from/ knotsBaromVisibWave heightAir tempDewpointWater temp
2016-May-05 17:30N 51°29' E 001°48'0 0.1
2016-May-05 16:30N 51°29' E 001°48'0 0.3
2016-May-05 15:33N 51°29' E 001°48'0 0.1
2016-May-05 14:33N 51°29' E 001°49'1 1.1
2016-May-05 13:33N 51°30' E 001°47'6 5.8
2016-May-05 12:33N 51°29' E 001°38'9 9.0
2016-May-05 11:33N 51°25' E 001°25'0 0.1
2016-May-05 10:33N 51°25' E 001°25'0 0.0
2016-May-05 09:33N 51°25' E 001°25'0 0.0
2016-May-05 08:33N 51°25' E 001°25'0 0.0
2016-May-05 07:33N 51°25' E 001°25'0 0.0
2016-May-05 06:33N 51°25' E 001°25'0 0.1
2016-May-05 05:33N 51°25' E 001°25'0 0.1
2016-May-05 04:33N 51°25' E 001°25'0 0.0
2016-May-05 03:33N 51°25' E 001°25'0 0.0
2016-May-05 02:33N 51°25' E 001°25'0 0.0
2016-May-05 01:33N 51°25' E 001°25'0 0.0
2016-May-05 00:33N 51°25' E 001°25'0 0.0
2016-May-04 23:33N 51°25' E 001°25'0 0.1
2016-May-04 22:33N 51°25' E 001°25'0 0.0
2016-May-04 21:33N 51°25' E 001°25'0 0.0
2016-May-04 20:33N 51°25' E 001°25'0 0.1
2016-May-04 19:33N 51°25' E 001°25'0 0.0
2016-May-04 18:33N 51°25' E 001°25'0 0.0
2016-May-04 17:34N 51°25' E 001°25'0 0.1
2016-May-04 16:33N 51°25' E 001°25'6 5.9
2016-May-04 15:34N 51°28' E 001°33'1110.8
2016-May-04 14:34N 51°29' E 001°51'1111.3
2016-May-04 13:33N 51°24' E 002°07'1010.3
2016-May-04 12:34N 51°21' E 002°23'1010.0
2016-May-04 11:34N 51°23' E 002°39'10 8.9
2016-May-04 10:28N 51°22' E 002°54'9 9.3
2016-May-04 09:32N 51°22' E 003°08'3 1.6
2016-May-04 07:32N 51°20' E 003°12'0 0.0
2016-May-04 06:17N 51°20' E 003°12'0 0.0
2016-May-04 04:32N 51°20' E 003°12'0 0.0
2016-May-04 03:29N 51°20' E 003°12'0 0.0
2016-May-04 01:05N 51°20' E 003°12'0 0.0
2016-May-03 22:17N 51°20' E 003°12'0 0.0
2016-May-03 21:32N 51°20' E 003°12'0 0.0
2016-May-03 20:05N 51°20' E 003°12'0 0.0
2016-May-03 16:05N 51°20' E 003°12'0 0.0
2016-May-03 12:23N 51°20' E 003°12'0 0.0
2016-May-03 10:32N 51°20' E 003°12'0 0.0
2016-May-03 09:26N 51°20' E 003°12'0 0.0
2016-May-03 06:32N 51°20' E 003°12'0 0.0
2016-May-03 04:26N 51°20' E 003°12'0 0.0
2016-May-03 03:32N 51°20' E 003°12'0 0.0
2016-May-03 02:23N 51°20' E 003°12'0 0.0
2016-May-03 01:20N 51°20' E 003°12'0 0.0
2016-May-03 00:14N 51°20' E 003°12'0 0.0
2016-May-02 23:29N 51°20' E 003°12'0 0.0
2016-May-02 22:32N 51°20' E 003°12'0 0.0
2016-May-02 21:29N 51°20' E 003°12'0 0.0
2016-May-02 20:20N 51°20' E 003°12'0 0.0
2016-May-02 19:32N 51°20' E 003°12'0 0.0
2016-May-02 18:29N 51°20' E 003°12'0 0.0
2016-May-02 17:20N 51°20' E 003°12'0 0.0
2016-May-02 15:08N 51°20' E 003°12'0 0.0
2016-May-02 14:32N 51°20' E 003°12'0 0.0
2016-May-02 13:14N 51°20' E 003°12'0 0.0
2016-May-02 11:32N 51°20' E 003°12'0 0.0
2016-May-02 10:26N 51°20' E 003°12'0 0.0
2016-May-02 08:20N 51°20' E 003°12'0 0.0
2016-May-02 07:05N 51°20' E 003°12'0 0.0
2016-May-02 06:29N 51°20' E 003°12'0 0.0
2016-May-02 05:32N 51°20' E 003°12'0 0.0
2016-May-02 04:08N 51°20' E 003°12'0 0.0
2016-May-02 03:29N 51°20' E 003°12'0 0.0
2016-May-02 02:32N 51°20' E 003°12'0 0.0
2016-May-01 22:20N 51°20' E 003°12'0 0.0
2016-May-01 21:29N 51°20' E 003°12'0 0.0
2016-May-01 20:23N 51°20' E 003°12'0 0.0
2016-May-01 19:29N 51°20' E 003°12'0 0.0
2016-May-01 18:08N 51°20' E 003°12'0 0.0
2016-May-01 17:32N 51°20' E 003°12'0 0.0
2016-May-01 16:11N 51°20' E 003°12'0 0.0
2016-May-01 15:20N 51°20' E 003°12'0 0.0
2016-May-01 14:32N 51°20' E 003°12'0 0.0
2016-May-01 13:23N 51°20' E 003°12'0 0.0
2016-May-01 12:29N 51°20' E 003°12'0 0.0
2016-May-01 11:32N 51°20' E 003°12'0 0.0
2016-May-01 09:32N 51°20' E 003°12'0 0.0
2016-May-01 08:29N 51°20' E 003°12'0 0.0
2016-May-01 07:26N 51°20' E 003°12'0 0.0
2016-May-01 06:32N 51°20' E 003°12'0 0.0
2016-May-01 04:11N 51°20' E 003°12'0 0.0
2016-May-01 03:23N 51°20' E 003°12'0 0.0
2016-May-01 02:26N 51°20' E 003°12'0 0.0
2016-May-01 01:32N 51°20' E 003°12'0 0.0
2016-May-01 00:26N 51°20' E 003°12'0 0.0
2016-Apr-30 23:32N 51°20' E 003°12'0 0.0
2016-Apr-30 22:11N 51°20' E 003°12'0 0.0
2016-Apr-30 21:20N 51°20' E 003°12'0 0.0
2016-Apr-30 20:29N 51°20' E 003°12'0 0.0
2016-Apr-30 19:14N 51°20' E 003°12'0 0.0
2016-Apr-30 17:29N 51°20' E 003°12'0 0.0
2016-Apr-30 16:29N 51°20' E 003°12'0 0.0
2016-Apr-30 15:32N 51°20' E 003°12'0 0.0
2016-Apr-30 14:23N 51°20' E 003°12'0 0.0
2016-Apr-30 13:08N 51°20' E 003°12'0 0.0
2016-Apr-30 12:17N 51°20' E 003°12'0 0.0
2016-Apr-30 08:29N 51°20' E 003°12'0 0.0
2016-Apr-30 07:17N 51°20' E 003°12'0 0.0
2016-Apr-30 06:32N 51°20' E 003°12'0 0.0
2016-Apr-30 05:29N 51°20' E 003°12'0 0.0
2016-Apr-30 02:14N 51°20' E 003°12'0 0.0
2016-Apr-30 01:20N 51°20' E 003°12'0 0.0
2016-Apr-29 23:29N 51°20' E 003°12'0 0.0
2016-Apr-29 22:08N 51°20' E 003°12'0 0.0
2016-Apr-29 21:32N 51°20' E 003°12'0 0.0
2016-Apr-29 20:32N 51°20' E 003°12'0 0.0
2016-Apr-29 19:29N 51°20' E 003°12'0 0.0
2016-Apr-29 18:32N 51°20' E 003°12'0 0.0
2016-Apr-29 17:32N 51°20' E 003°12'0 0.0
2016-Apr-29 16:32N 51°20' E 003°12'0 0.0
2016-Apr-29 15:32N 51°20' E 003°12'0 0.0
2016-Apr-29 13:26N 51°20' E 003°12'0 0.0
2016-Apr-29 07:29N 51°20' E 003°12'0 0.0
2016-Apr-29 04:32N 51°20' E 003°12'0 0.0
2016-Apr-29 03:20N 51°20' E 003°12'0 0.0
2016-Apr-29 01:32N 51°20' E 003°12'0 0.0
2016-Apr-29 00:31N 51°20' E 003°12'0 0.0
2016-Apr-28 22:23N 51°20' E 003°12'0 0.0
2016-Apr-28 21:17N 51°20' E 003°12'0 0.0
2016-Apr-28 20:31N 51°20' E 003°12'0 0.0
2016-Apr-28 19:23N 51°20' E 003°12'0 0.0
2016-Apr-28 17:31N 51°20' E 003°12'0 0.0
2016-Apr-28 16:28N 51°20' E 003°12'0 0.0
2016-Apr-28 15:10N 51°20' E 003°12'0 0.0
2016-Apr-28 14:23N 51°20' E 003°12'0 0.0
2016-Apr-28 10:22N 51°20' E 003°12'0 0.0
2016-Apr-28 08:22N 51°20' E 003°12'0 0.0
2016-Apr-28 06:28N 51°20' E 003°12'0 0.0
2016-Apr-28 05:25N 51°20' E 003°12'0 0.0
2016-Apr-28 04:31N 51°20' E 003°12'0 0.0
2016-Apr-28 02:07N 51°20' E 003°12'0 0.0
2016-Apr-28 01:31N 51°20' E 003°12'0 0.0
2016-Apr-27 23:31N 51°20' E 003°12'0 0.0
2016-Apr-27 20:16N 51°20' E 003°12'0 0.0
2016-Apr-27 19:31N 51°20' E 003°12'0 0.0
2016-Apr-27 18:25N 51°20' E 003°12'0 0.0
2016-Apr-27 16:28N 51°20' E 003°12'0 0.0
2016-Apr-27 15:31N 51°20' E 003°12'0 0.0
2016-Apr-27 10:25N 51°20' E 003°12'0 0.0
2016-Apr-27 09:25N 51°20' E 003°12'0 0.0
2016-Apr-27 07:28N 51°20' E 003°12'0 0.0
2016-Apr-27 06:16N 51°20' E 003°12'0 0.0
2016-Apr-27 05:22N 51°20' E 003°12'0 0.0
2016-Apr-27 04:25N 51°20' E 003°12'0 0.0
2016-Apr-27 02:16N 51°20' E 003°12'0 0.0
2016-Apr-26 22:28N 51°20' E 003°12'0 0.0
2016-Apr-26 21:28N 51°20' E 003°12'0 0.0
2016-Apr-26 18:22N 51°20' E 003°12'0 0.0
2016-Apr-26 16:31N 51°20' E 003°12'0 0.0
2016-Apr-26 14:31N 51°20' E 003°12'0 0.0
2016-Apr-26 13:31N 51°20' E 003°12'0 0.0
2016-Apr-26 12:31N 51°20' E 003°12'0 0.0
2016-Apr-26 11:31N 51°20' E 003°12'0 0.0
2016-Apr-26 10:31N 51°20' E 003°12'0 0.0
2016-Apr-26 09:31N 51°20' E 003°12'0 0.0
2016-Apr-26 08:31N 51°20' E 003°12'0 0.0
2016-Apr-26 07:31N 51°20' E 003°12'0 0.0
2016-Apr-26 06:31N 51°20' E 003°12'0 0.0
2016-Apr-26 05:28N 51°20' E 003°12'0 0.0
2016-Apr-26 04:28N 51°20' E 003°12'0 0.0
2016-Apr-26 03:31N 51°20' E 003°12'0 0.0
2016-Apr-26 02:28N 51°20' E 003°12'0 0.0
2016-Apr-26 01:31N 51°20' E 003°12'0 0.0
2016-Apr-26 00:25N 51°20' E 003°12'0 0.0
2016-Apr-25 22:19N 51°20' E 003°12'0 0.0
2016-Apr-25 20:22N 51°20' E 003°12'0 0.0
2016-Apr-25 19:07N 51°20' E 003°12'0 0.0
2016-Apr-25 18:22N 51°20' E 003°12'0 0.0
2016-Apr-25 17:31N 51°20' E 003°12'  

Dump ship's entire track history